Time;durP1;ratioP1;P1;durP2;ratioP2;P2;SDS_P1;SDS_P2;PMS_P1;PMS_P2;Temp;Humidity;BMP_temperature;BMP_pressure;BME280_temperature;BME280_humidity;BME280_pressure;Samples;Min_cycle;Max_cycle;Signal;HPM_P1;HPM_P2
2021/09/21 00:04:27;;;;;;;3.72;3.25;;;;;;;15.18;51.54;101010.56;10281805;28;20065;-68
2021/09/21 00:09:28;;;;;;;4.45;4.05;;;;;;;15.18;52.02;101023.97;10284370;28;20585;-71
2021/09/21 00:14:30;;;;;;;3.75;3.45;;;;;;;15.19;51.84;101022.13;10284281;28;20059;-70
2021/09/21 00:19:32;;;;;;;4.05;3.60;;;;;;;15.18;51.59;101001.66;10286042;28;20096;-70
2021/09/21 00:24:34;;;;;;;4.20;3.08;;;;;;;15.13;51.45;101010.13;10283640;28;20050;-70
2021/09/21 00:29:35;;;;;;;3.92;3.53;;;;;;;15.07;51.47;101009.78;10273588;28;20058;-70
2021/09/21 00:34:37;;;;;;;3.33;3.08;;;;;;;15.09;52.00;101021.25;10283678;28;20054;-70
2021/09/21 00:39:40;;;;;;;3.17;2.88;;;;;;;15.06;51.57;101029.53;10310693;23;20519;-66
2021/09/21 00:44:42;;;;;;;3.83;3.10;;;;;;;15.10;51.79;101030.97;10333003;28;20097;-65
2021/09/21 00:49:44;;;;;;;4.13;3.20;;;;;;;15.06;51.64;101019.69;10322255;28;20141;-65
2021/09/21 00:54:46;;;;;;;4.25;3.45;;;;;;;15.09;51.41;101040.03;10325894;28;20056;-65
2021/09/21 00:59:47;;;;;;;4.65;3.67;;;;;;;15.02;52.17;101024.44;10322987;28;20078;-65
2021/09/21 01:04:49;;;;;;;3.88;3.53;;;;;;;14.97;52.31;101037.41;10322201;28;20702;-65
2021/09/21 01:10:04;;;;;;;3.35;3.03;;;;;;;15.02;52.22;101034.34;10328346;28;20058;-65
2021/09/21 01:15:07;;;;;;;3.78;3.40;;;;;;;14.91;52.16;101037.94;10333198;28;20054;-65
2021/09/21 01:20:10;;;;;;;3.92;3.40;;;;;;;14.91;51.92;101031.75;10343357;28;20121;-65
2021/09/21 01:25:12;;;;;;;4.55;3.60;;;;;;;14.97;51.90;101039.25;10336513;28;20141;-65
2021/09/21 01:30:14;;;;;;;3.58;3.28;;;;;;;14.97;52.05;101045.47;10322720;28;20050;-65
2021/09/21 01:35:16;;;;;;;3.75;3.10;;;;;;;14.99;52.31;101045.31;10325548;28;20125;-64
2021/09/21 01:40:17;;;;;;;3.42;3.13;;;;;;;14.83;52.74;101043.09;10330329;28;20137;-65
2021/09/21 01:45:19;;;;;;;3.90;3.60;;;;;;;14.74;53.07;101039.41;10326963;28;20045;-65
2021/09/21 01:50:28;;;;;;;3.22;3.00;;;;;;;14.89;53.50;101055.13;10316271;28;20563;-64
2021/09/21 02:00:43;;;;;;;3.35;3.05;;;;;;;14.83;53.05;101062.75;10330168;28;20056;-65
2021/09/21 02:05:46;;;;;;;3.95;3.55;;;;;;;14.79;53.42;101077.38;10321841;28;20526;-65
2021/09/21 02:10:48;;;;;;;3.88;3.05;;;;;;;14.68;52.69;101074.75;10329660;28;20060;-67
2021/09/21 02:15:49;;;;;;;3.30;2.95;;;;;;;14.33;54.17;101049.91;10329472;28;20137;-64
2021/09/21 02:20:51;;;;;;;3.97;3.50;;;;;;;14.48;53.44;101047.78;10328909;28;20115;-65
2021/09/21 02:25:52;;;;;;;4.10;3.40;;;;;;;14.53;53.41;101038.50;10334211;28;20871;-65
2021/09/21 02:30:54;;;;;;;3.17;2.80;;;;;;;14.65;52.63;101061.59;10320929;28;20046;-65
2021/09/21 02:35:55;;;;;;;5.07;3.13;;;;;;;14.62;52.97;101065.41;10323720;28;20045;-64
2021/09/21 02:40:57;;;;;;;4.75;3.20;;;;;;;14.66;53.00;101066.00;10315739;28;20132;-64
2021/09/21 02:46:01;;;;;;;4.40;3.40;;;;;;;14.64;53.20;101062.59;10322451;28;20223;-65
2021/09/21 02:51:03;;;;;;;3.03;2.72;;;;;;;14.49;53.23;101062.03;10320980;28;20129;-65
2021/09/21 02:56:04;;;;;;;3.38;3.05;;;;;;;14.53;53.67;101081.38;10331015;28;20560;-64
2021/09/21 03:01:06;;;;;;;3.70;3.20;;;;;;;14.36;53.84;101072.94;10324663;28;20797;-65
2021/09/21 03:06:18;;;;;;;4.80;3.45;;;;;;;14.42;53.41;101080.44;10324431;28;20046;-65
2021/09/21 03:11:23;;;;;;;3.85;3.53;;;;;;;14.40;53.58;101085.09;10323585;28;20129;-64
2021/09/21 03:21:44;;;;;;;3.40;3.10;;;;;;;14.22;53.60;101094.66;10331211;28;20052;-65
2021/09/21 03:26:46;;;;;;;3.45;2.50;;;;;;;14.17;53.39;101094.19;10334122;28;20528;-64
2021/09/21 03:31:48;;;;;;;3.63;3.15;;;;;;;14.19;53.91;101102.94;10325862;28;20077;-64
2021/09/21 03:36:49;;;;;;;3.83;2.95;;;;;;;14.09;53.90;101109.03;10331684;28;20360;-67
2021/09/21 03:41:51;;;;;;;3.88;3.47;;;;;;;14.08;54.31;101104.69;10289085;28;20138;-66
2021/09/21 03:46:53;;;;;;;4.47;3.97;;;;;;;13.85;53.83;101103.00;10268401;28;20067;-64
2021/09/21 03:51:55;;;;;;;4.07;3.78;;;;;;;13.84;53.91;101101.31;10318823;28;20045;-63
2021/09/21 03:56:56;;;;;;;3.80;3.50;;;;;;;13.73;54.34;101113.72;10329184;28;20730;-64
2021/09/21 04:01:58;;;;;;;4.22;3.83;;;;;;;13.56;54.77;101120.41;10322946;28;20150;-64
2021/09/21 04:07:00;;;;;;;3.88;3.45;;;;;;;13.43;54.90;101117.84;10299746;28;20058;-66
2021/09/21 04:12:01;;;;;;;4.03;3.22;;;;;;;13.23;55.62;101116.72;10322137;28;20528;-65
2021/09/21 04:17:04;;;;;;;4.10;3.70;;;;;;;13.29;55.45;101123.41;10329454;28;20050;-64
2021/09/21 04:22:07;;;;;;;4.57;4.18;;;;;;;13.15;55.61;101137.00;10325059;28;20065;-64
2021/09/21 04:27:08;;;;;;;4.10;3.70;;;;;;;12.99;56.08;101121.31;10326148;28;20133;-65
2021/09/21 04:32:12;;;;;;;4.97;3.75;;;;;;;12.91;55.98;101113.88;10325645;28;20416;-65
2021/09/21 04:37:13;;;;;;;4.47;3.70;;;;;;;12.98;56.70;101132.97;10328553;28;20121;-65
2021/09/21 04:42:17;;;;;;;5.97;4.25;;;;;;;12.84;55.85;101134.03;10327323;28;20058;-65
2021/09/21 04:47:18;;;;;;;4.83;3.77;;;;;;;12.67;56.61;101140.63;10327466;28;20137;-65
2021/09/21 04:52:20;;;;;;;4.82;4.00;;;;;;;12.50;56.92;101136.56;10320880;28;20048;-65
2021/09/21 04:57:22;;;;;;;5.05;3.65;;;;;;;12.55;57.29;101163.78;10316876;28;20041;-65
2021/09/21 05:02:23;;;;;;;5.25;3.85;;;;;;;12.50;56.61;101168.59;10298605;28;20060;-65
2021/09/21 05:07:25;;;;;;;3.72;3.33;;;;;;;12.43;56.38;101178.03;10302194;28;20057;-65
2021/09/21 05:12:26;;;;;;;5.57;4.00;;;;;;;12.22;56.97;101165.31;10301025;28;20046;-64
2021/09/21 05:17:27;;;;;;;4.93;3.58;;;;;;;12.27;56.76;101194.34;10301220;28;20052;-65
2021/09/21 05:22:29;;;;;;;4.40;4.00;;;;;;;12.26;57.22;101193.47;10302844;28;20133;-64
2021/09/21 05:27:30;;;;;;;4.38;3.90;;;;;;;12.18;57.00;101207.38;10299551;28;20058;-65
2021/09/21 05:32:32;;;;;;;4.72;3.83;;;;;;;12.17;57.46;101218.16;10298793;28;20133;-65
2021/09/21 05:37:34;;;;;;;4.45;4.05;;;;;;;12.08;57.37;101210.81;10299071;28;20061;-64
2021/09/21 05:42:36;;;;;;;4.32;3.90;;;;;;;12.14;57.51;101242.41;10300039;28;20365;-65
2021/09/21 05:47:41;;;;;;;4.40;3.80;;;;;;;12.18;57.28;101265.25;10299384;28;20050;-67
2021/09/21 05:52:44;;;;;;;3.95;3.20;;;;;;;12.11;56.66;101243.47;10311556;28;20052;-65
2021/09/21 05:57:46;;;;;;;5.82;3.63;;;;;;;12.29;57.10;101267.97;10296932;28;20042;-66
2021/09/21 06:02:47;;;;;;;5.28;3.67;;;;;;;12.29;56.50;101272.47;10296971;28;20046;-67
2021/09/21 06:07:51;;;;;;;3.90;3.50;;;;;;;12.37;56.35;101286.16;10299563;28;20038;-67
2021/09/21 06:12:53;;;;;;;4.47;4.03;;;;;;;12.45;56.79;101288.25;10301965;28;20061;-69
2021/09/21 06:17:54;;;;;;;5.82;4.00;;;;;;;12.62;55.38;101311.06;10299112;28;20069;-68
2021/09/21 06:22:56;;;;;;;5.05;3.90;;;;;;;12.77;55.17;101319.78;10299146;28;20057;-68
2021/09/21 06:27:57;;;;;;;4.10;3.70;;;;;;;12.96;54.76;101325.50;10300642;28;20564;-68
2021/09/21 06:33:01;;;;;;;3.53;3.23;;;;;;;13.08;54.54;101331.75;10299532;28;20474;-66
2021/09/21 06:38:03;;;;;;;4.15;3.85;;;;;;;13.14;54.84;101346.50;10319702;22;20309;-72
2021/09/21 06:43:04;;;;;;;6.80;4.15;;;;;;;13.27;53.83;101333.94;10282264;28;20669;-72
2021/09/21 06:48:07;;;;;;;4.60;4.20;;;;;;;13.37;53.66;101320.75;10303235;28;20512;-71
2021/09/21 06:53:08;;;;;;;3.88;3.47;;;;;;;13.52;54.77;101326.75;10303716;28;20050;-70
2021/09/21 06:58:10;;;;;;;4.32;3.47;;;;;;;13.65;54.00;101324.00;10301986;28;20192;-74
2021/09/21 07:03:12;;;;;;;5.15;3.90;;;;;;;13.90;53.93;101304.22;10265126;28;20050;-72
2021/09/21 07:08:14;;;;;;;4.20;3.65;;;;;;;14.06;52.29;101304.72;10260963;28;20061;-72
2021/09/21 07:13:16;;;;;;;3.90;3.47;;;;;;;14.26;51.83;101310.31;10266623;28;20046;-72
2021/09/21 07:18:17;;;;;;;4.95;3.30;;;;;;;14.53;52.01;101320.66;10262486;28;20624;-72
2021/09/21 07:23:18;;;;;;;3.53;3.22;;;;;;;14.77;50.40;101315.19;10263019;28;20073;-72
2021/09/21 07:28:20;;;;;;;4.22;3.08;;;;;;;15.03;51.97;101325.59;10259452;28;20438;-71
2021/09/21 07:33:21;;;;;;;3.95;3.58;;;;;;;15.30;50.13;101311.72;10264645;28;20193;-72
2021/09/21 07:38:23;;;;;;;5.30;3.97;;;;;;;15.43;49.55;101327.63;10262999;28;20085;-72
2021/09/21 07:43:24;;;;;;;5.32;4.15;;;;;;;15.69;49.28;101338.00;10263515;28;20054;-74
2021/09/21 07:48:25;;;;;;;5.55;4.20;;;;;;;15.92;49.14;101321.78;10261402;28;20058;-73
2021/09/21 07:53:27;;;;;;;4.78;4.38;;;;;;;16.16;47.73;101335.78;10258602;28;20797;-74
2021/09/21 07:58:29;;;;;;;6.43;4.35;;;;;;;16.29;47.82;101345.44;10261300;28;20157;-73
2021/09/21 08:03:30;;;;;;;5.00;3.33;;;;;;;16.41;48.12;101339.84;10260440;28;20588;-72
2021/09/21 08:08:32;;;;;;;4.25;2.90;;;;;;;16.41;47.81;101358.66;10260751;28;20047;-73
2021/09/21 08:13:34;;;;;;;4.85;2.83;;;;;;;16.72;47.35;101347.91;10264729;28;20059;-73
2021/09/21 08:18:36;;;;;;;4.25;3.33;;;;;;;17.04;46.72;101363.00;10259722;28;20059;-69
2021/09/21 08:23:37;;;;;;;5.60;3.03;;;;;;;17.47;45.02;101369.84;10262175;28;20142;-74
2021/09/21 08:28:39;;;;;;;4.50;2.83;;;;;;;17.88;44.19;101364.28;10261674;28;20061;-73
2021/09/21 08:33:40;;;;;;;5.60;2.67;;;;;;;18.11;44.86;101391.75;10266647;28;20055;-74
2021/09/21 08:38:57;;;;;;;3.70;2.42;;;;;;;18.18;44.05;101405.53;10260499;28;20541;-73
2021/09/21 08:43:58;;;;;;;3.67;2.72;;;;;;;18.52;42.62;101407.66;10260250;28;20050;-73
2021/09/21 08:49:00;;;;;;;6.20;3.50;;;;;;;18.82;43.39;101419.19;10286096;28;20059;-73
2021/09/21 08:54:02;;;;;;;4.75;2.58;;;;;;;19.06;42.86;101419.50;10265337;28;20805;-74
2021/09/21 08:59:09;;;;;;;4.35;3.30;;;;;;;19.43;41.79;101413.16;10262995;28;20122;-72
2021/09/21 09:04:12;;;;;;;5.53;3.10;;;;;;;19.73;40.83;101397.56;10256087;28;20042;-72
2021/09/21 09:09:16;;;;;;;;;;;;;;;19.98;40.79;101400.50;10252853;28;20094;-72
2021/09/21 09:14:24;;;;;;;4.38;2.72;;;;;;;20.29;39.80;101411.69;10259174;28;19930;-73
2021/09/21 09:19:32;;;;;;;5.65;2.53;;;;;;;20.78;38.85;101407.63;10263375;28;20363;-72
2021/09/21 09:24:55;;;;;;;6.30;2.85;;;;;;;21.25;37.19;101404.38;10261166;28;20106;-73
2021/09/21 09:30:00;;;;;;;3.72;2.92;;;;;;;21.01;38.41;101419.50;10284344;28;20046;-73
2021/09/21 09:35:03;;;;;;;4.72;2.80;;;;;;;21.55;37.55;101415.63;10306908;28;20081;-73
2021/09/21 09:40:05;;;;;;;4.72;2.42;;;;;;;21.23;38.10;101427.19;10314946;28;20061;-73
2021/09/21 09:45:08;;;;;;;4.32;3.10;;;;;;;21.41;38.08;101424.34;10317997;28;20039;-72
2021/09/21 09:50:11;;;;;;;4.28;2.67;;;;;;;22.25;36.90;101423.22;10305178;28;20042;-72
2021/09/21 09:55:12;;;;;;;3.33;2.58;;;;;;;23.07;35.58;101410.41;10276690;28;20126;-73
2021/09/21 10:00:14;;;;;;;4.25;3.35;;;;;;;23.50;34.26;101421.75;10273572;28;20487;-76
2021/09/21 10:05:16;;;;;;;4.18;2.17;;;;;;;27.03;29.14;101406.91;10266604;28;20042;-72
2021/09/21 10:10:18;;;;;;;4.40;2.20;;;;;;;30.34;24.09;101410.97;10267665;28;20105;-74
2021/09/21 10:15:20;;;;;;;2.45;2.17;;;;;;;29.52;23.80;101402.81;10265334;28;20596;-73
2021/09/21 10:20:31;;;;;;;;;;;;;;;28.97;24.44;101406.03;10257463;28;20054;-73
2021/09/21 10:25:35;;;;;;;2.35;2.05;;;;;;;27.61;24.85;101395.50;10266440;28;20055;-73
2021/09/21 10:30:58;;;;;;;2.45;1.60;;;;;;;27.56;25.77;101386.25;10261797;28;20133;-73
2021/09/21 10:36:00;;;;;;;2.58;2.30;;;;;;;30.28;22.07;101390.75;10299387;28;20050;-73
2021/09/21 10:41:03;;;;;;;4.10;2.03;;;;;;;30.98;21.61;101399.69;10304710;28;20058;-72
2021/09/21 10:46:13;;;;;;;2.33;1.85;;;;;;;34.89;16.20;101379.94;10303611;28;20165;-75
2021/09/21 10:51:15;;;;;;;2.83;1.67;;;;;;;33.10;18.62;101379.69;10294464;28;20074;-75
2021/09/21 10:56:17;;;;;;;2.20;2.00;;;;;;;29.50;22.67;101391.19;10304379;28;20286;-73
2021/09/21 11:01:18;;;;;;;2.83;2.20;;;;;;;26.66;25.88;101395.38;10300487;28;20121;-73
2021/09/21 11:06:21;;;;;;;2.45;2.20;;;;;;;25.86;27.88;101397.56;10306624;28;20049;-74
2021/09/21 11:11:23;;;;;;;4.05;2.10;;;;;;;24.85;28.66;101407.38;10286240;28;20704;-73
2021/09/21 11:16:26;;;;;;;3.90;2.25;;;;;;;24.31;30.63;101416.66;10294450;28;20039;-75
2021/09/21 11:21:28;;;;;;;4.15;2.53;;;;;;;23.32;32.47;101411.16;10264749;28;20125;-75
2021/09/21 11:26:29;;;;;;;3.63;2.85;;;;;;;22.28;34.21;101418.47;10261599;28;20047;-75
2021/09/21 11:31:30;;;;;;;3.47;2.33;;;;;;;21.88;35.10;101415.63;10264961;28;20061;-72
2021/09/21 11:36:32;;;;;;;4.18;2.40;;;;;;;21.09;35.78;101413.31;10263196;28;20117;-75
2021/09/21 11:41:33;;;;;;;3.88;2.90;;;;;;;21.15;36.15;101426.19;10266356;28;20524;-75
2021/09/21 11:46:35;;;;;;;3.75;2.00;;;;;;;21.22;36.07;101420.09;10265530;28;20136;-73
2021/09/21 11:51:38;;;;;;;3.05;2.03;;;;;;;20.82;36.42;101426.06;10269175;28;20074;-73
2021/09/21 11:56:41;;;;;;;3.03;2.45;;;;;;;20.98;35.66;101432.53;10262395;28;20050;-74
2021/09/21 12:01:51;;;;;;;2.40;1.77;;;;;;;23.20;31.33;101429.72;10273122;28;20164;-73
2021/09/21 12:06:53;;;;;;;2.78;2.00;;;;;;;30.54;22.98;101405.28;10268694;28;20129;-73
2021/09/21 12:11:57;;;;;;;2.65;1.63;;;;;;;34.89;16.13;101413.13;10271563;28;20673;-73
2021/09/21 12:17:02;;;;;;;2.03;1.45;;;;;;;34.88;15.99;101389.31;10260256;28;20146;-74
2021/09/21 12:22:03;;;;;;;2.28;1.55;;;;;;;30.17;19.95;101394.25;10260147;28;20092;-72
2021/09/21 12:27:05;;;;;;;2.65;1.80;;;;;;;26.57;25.56;101402.06;10260709;28;20161;-74
2021/09/21 12:32:07;;;;;;;2.55;2.00;;;;;;;25.32;27.15;101393.47;10260208;28;20051;-72
2021/09/21 12:37:08;;;;;;;6.40;2.27;;;;;;;24.32;28.71;101399.31;10258055;28;20054;-72
2021/09/21 12:42:12;;;;;;;2.37;1.77;;;;;;;23.92;30.24;101395.94;10260435;28;20138;-74
2021/09/21 12:47:15;;;;;;;2.88;2.03;;;;;;;23.88;29.16;101391.06;10257128;28;20170;-72
2021/09/21 12:52:28;;;;;;;1.77;1.67;;;;;;;23.03;30.17;101399.09;10265242;28;20127;-71
2021/09/21 12:57:30;;;;;;;3.80;1.70;;;;;;;22.95;31.11;101396.41;10259584;28;20113;-72
2021/09/21 13:02:31;;;;;;;2.60;1.67;;;;;;;23.24;31.06;101390.34;10266511;28;20497;-73
2021/09/21 13:07:33;;;;;;;4.63;2.17;;;;;;;22.83;31.73;101392.38;10285838;28;20536;-72
2021/09/21 13:12:35;;;;;;;3.72;2.13;;;;;;;22.60;32.42;101388.56;10271093;28;20055;-72
2021/09/21 13:17:36;;;;;;;2.85;1.85;;;;;;;22.23;33.51;101400.88;10273129;28;20159;-71
2021/09/21 13:22:38;;;;;;;3.38;1.60;;;;;;;21.60;34.03;101377.19;10307020;23;20133;-67
2021/09/21 13:27:40;;;;;;;2.85;1.75;;;;;;;21.24;34.67;101383.72;10302983;28;20601;-67
2021/09/21 13:32:42;;;;;;;4.15;2.05;;;;;;;20.88;35.46;101370.41;10278593;28;20057;-66
2021/09/21 13:37:44;;;;;;;4.45;1.88;;;;;;;20.82;36.14;101384.59;10272072;28;20063;-67
2021/09/21 13:42:56;;;;;;;4.32;1.80;;;;;;;20.96;35.84;101378.56;10270427;28;20486;-66
2021/09/21 13:47:58;;;;;;;5.40;1.77;;;;;;;20.95;35.96;101368.75;10266990;28;20051;-66
2021/09/21 13:52:59;;;;;;;2.90;2.00;;;;;;;21.22;35.08;101365.97;10274868;28;20047;-68
2021/09/21 13:58:01;;;;;;;4.63;2.22;;;;;;;21.37;36.32;101369.69;10266161;28;20065;-67
2021/09/21 14:03:03;;;;;;;2.95;1.88;;;;;;;22.16;33.55;101369.16;10271255;28;20051;-67
2021/09/21 14:08:05;;;;;;;2.40;1.98;;;;;;;22.70;33.21;101360.38;10278786;28;20050;-69
2021/09/21 14:13:07;;;;;;;2.47;1.20;;;;;;;23.11;32.19;101357.50;10283108;28;20653;-67
2021/09/21 14:18:08;;;;;;;3.78;2.45;;;;;;;22.93;32.80;101355.84;10284630;28;20139;-67
2021/09/21 14:23:10;;;;;;;2.10;1.42;;;;;;;22.24;33.26;101345.59;10285570;28;20050;-68
2021/09/21 14:28:12;;;;;;;1.88;1.50;;;;;;;22.19;33.01;101353.41;10280669;28;20065;-67
2021/09/21 14:33:14;;;;;;;2.15;1.95;;;;;;;22.15;32.41;101354.78;10264735;28;20636;-68
2021/09/21 14:38:19;;;;;;;1.80;1.70;;;;;;;21.50;33.90;101361.97;10229877;28;20057;-66
2021/09/21 14:43:21;;;;;;;4.30;1.58;;;;;;;21.44;34.45;101359.88;10282480;28;20521;-68
2021/09/21 14:48:22;;;;;;;2.88;1.50;;;;;;;21.46;33.64;101347.00;10284275;28;20046;-67
2021/09/21 14:53:24;;;;;;;2.50;1.42;;;;;;;21.39;34.01;101362.25;10277994;28;20051;-66
2021/09/21 14:58:26;;;;;;;3.30;1.52;;;;;;;21.27;33.87;101358.16;10275942;28;20166;-66
2021/09/21 15:03:27;;;;;;;2.50;1.40;;;;;;;20.97;34.20;101357.75;10278895;28;20414;-67
2021/09/21 15:08:29;;;;;;;2.08;1.40;;;;;;;20.57;35.32;101345.78;10279702;28;20052;-67
2021/09/21 15:13:30;;;;;;;1.90;1.55;;;;;;;20.35;36.84;101358.84;10281106;28;20047;-68
2021/09/21 15:18:32;;;;;;;2.97;1.63;;;;;;;20.28;36.62;101374.00;10284369;28;20062;-66
2021/09/21 15:23:34;;;;;;;1.75;1.60;;;;;;;20.16;37.01;101367.19;10275391;28;20050;-66
2021/09/21 15:28:38;;;;;;;3.78;1.88;;;;;;;20.17;36.99;101377.00;10285598;28;20055;-68
2021/09/21 15:33:39;;;;;;;2.20;2.00;;;;;;;20.07;37.61;101374.38;10282211;28;20639;-67
2021/09/21 15:38:41;;;;;;;2.78;1.48;;;;;;;19.89;37.33;101363.63;10284867;28;20051;-69
2021/09/21 15:43:42;;;;;;;2.38;1.33;;;;;;;19.86;37.86;101377.44;10284741;28;20133;-68
2021/09/21 15:48:44;;;;;;;3.70;1.88;;;;;;;19.67;38.48;101365.78;10276358;28;20129;-67
2021/09/21 15:53:46;;;;;;;4.10;1.77;;;;;;;19.61;38.64;101380.75;10278013;28;20145;-69
2021/09/21 15:58:47;;;;;;;3.28;2.20;;;;;;;19.43;38.52;101378.06;10274776;28;20454;-68
2021/09/21 16:03:48;;;;;;;4.82;1.75;;;;;;;19.28;39.11;101385.00;10280796;28;20061;-69
2021/09/21 16:08:50;;;;;;;2.33;1.70;;;;;;;19.08;39.05;101371.66;10274254;28;20523;-69
2021/09/21 16:13:51;;;;;;;2.25;2.05;;;;;;;19.05;40.20;101384.59;10275992;28;20046;-69
2021/09/21 16:18:53;;;;;;;3.30;1.90;;;;;;;19.04;39.85;101410.72;10273294;28;20061;-68
2021/09/21 16:23:55;;;;;;;2.90;1.90;;;;;;;18.98;40.48;101424.81;10279102;28;20493;-68
2021/09/21 16:28:56;;;;;;;2.88;1.70;;;;;;;18.84;40.74;101419.88;10281650;28;21731;-68
2021/09/21 16:33:58;;;;;;;1.80;1.70;;;;;;;18.71;41.00;101415.69;10280150;28;20046;-68
2021/09/21 16:38:59;;;;;;;2.28;1.80;;;;;;;18.54;41.50;101421.88;10280737;28;20065;-67
2021/09/21 16:44:02;;;;;;;3.35;1.98;;;;;;;18.52;41.77;101440.88;10281190;28;20147;-67
2021/09/21 16:49:05;;;;;;;3.53;2.00;;;;;;;18.38;42.21;101428.72;10291954;28;20494;-66
2021/09/21 16:54:07;;;;;;;3.22;2.13;;;;;;;18.18;43.23;101429.78;10283739;28;20054;-69
2021/09/21 16:59:08;;;;;;;3.60;2.25;;;;;;;18.14;43.16;101423.81;10280554;28;20043;-68
2021/09/21 17:04:11;;;;;;;4.07;2.50;;;;;;;17.99;43.49;101418.00;10267978;28;20053;-70
2021/09/21 17:09:13;;;;;;;2.57;2.10;;;;;;;17.94;43.39;101441.84;10280364;28;20097;-69
2021/09/21 17:14:15;;;;;;;4.72;2.65;;;;;;;17.90;43.67;101440.44;10269268;28;20130;-68
2021/09/21 17:19:16;;;;;;;4.47;2.65;;;;;;;17.66;44.52;101427.34;10274698;28;20046;-66
2021/09/21 17:24:17;;;;;;;3.95;2.78;;;;;;;17.62;45.88;101437.53;10276768;28;20416;-66
2021/09/21 17:29:19;;;;;;;3.30;2.55;;;;;;;17.63;45.49;101433.03;10276683;28;20051;-66
2021/09/21 17:34:20;;;;;;;3.28;2.80;;;;;;;17.64;45.88;101440.97;10284208;28;20051;-66
2021/09/21 17:39:22;;;;;;;4.05;2.92;;;;;;;17.58;45.75;101441.53;10282386;28;20218;-66
2021/09/21 17:44:23;;;;;;;3.15;2.70;;;;;;;17.51;45.76;101437.69;10288190;28;20058;-66
2021/09/21 17:49:25;;;;;;;4.22;3.25;;;;;;;17.46;45.74;101426.50;10277567;28;20346;-66
2021/09/21 17:54:26;;;;;;;5.43;2.78;;;;;;;17.40;45.76;101421.66;10279931;28;20457;-66
2021/09/21 17:59:28;;;;;;;4.15;2.78;;;;;;;17.33;46.00;101423.22;10273039;28;20058;-66
2021/09/21 18:04:29;;;;;;;3.55;2.63;;;;;;;17.33;46.17;101425.91;10280248;28;20050;-66
2021/09/21 18:09:32;;;;;;;3.05;2.40;;;;;;;17.27;46.69;101425.47;10270938;28;20060;-67
2021/09/21 18:14:34;;;;;;;4.83;3.37;;;;;;;17.28;46.49;101448.72;10272140;28;20065;-66
2021/09/21 18:19:54;;;;;;;3.78;2.25;;;;;;;17.26;46.72;101450.69;10276509;28;20137;-67
2021/09/21 18:24:55;;;;;;;3.05;2.45;;;;;;;17.14;46.56;101459.84;10273511;28;20046;-66
2021/09/21 18:29:57;;;;;;;3.38;3.00;;;;;;;17.06;46.39;101467.75;10282133;28;20053;-66
2021/09/21 18:34:58;;;;;;;3.15;2.65;;;;;;;16.96;46.43;101452.44;10278734;28;20084;-66
2021/09/21 18:39:59;;;;;;;3.95;2.90;;;;;;;16.89;46.47;101451.28;10277432;28;20181;-66
2021/09/21 18:45:01;;;;;;;3.65;2.83;;;;;;;16.89;47.58;101466.53;10277629;28;20556;-65
2021/09/21 18:50:04;;;;;;;4.43;3.40;;;;;;;16.79;46.84;101466.47;10267486;28;20046;-67
2021/09/21 18:55:08;;;;;;;4.85;3.78;;;;;;;16.53;46.68;101448.13;10280675;28;20058;-66
2021/09/21 19:00:14;;;;;;;4.22;2.75;;;;;;;16.41;48.01;101489.50;10284659;28;20050;-66
2021/09/21 19:05:19;;;;;;;3.80;3.10;;;;;;;16.44;47.93;101489.22;10272855;28;20046;-67
2021/09/21 19:10:20;;;;;;;6.32;3.53;;;;;;;16.06;48.61;101494.19;10271515;28;20053;-66
2021/09/21 19:15:28;;;;;;;3.35;2.92;;;;;;;15.50;51.19;101484.44;10267497;28;20142;-66
2021/09/21 19:20:29;;;;;;;5.55;3.05;;;;;;;15.29;52.75;101494.25;10276520;28;20133;-66
2021/09/21 19:25:31;;;;;;;3.50;3.17;;;;;;;15.37;52.14;101489.09;10273505;28;20156;-65
2021/09/21 19:30:33;;;;;;;5.55;3.08;;;;;;;15.53;53.29;101483.34;10279014;28;20146;-66
2021/09/21 19:35:35;;;;;;;4.43;3.00;;;;;;;15.49;52.84;101492.63;10277240;28;20057;-66
2021/09/21 19:40:36;;;;;;;5.30;3.38;;;;;;;15.41;54.25;101490.56;10261575;28;20050;-65
2021/09/21 19:45:38;;;;;;;7.47;5.38;;;;;;;15.36;54.20;101484.75;10259198;28;20505;-66
2021/09/21 19:50:40;;;;;;;4.15;3.75;;;;;;;15.07;55.15;101477.19;10260280;28;20518;-67
2021/09/21 19:55:43;;;;;;;4.68;4.28;;;;;;;15.18;55.29;101479.03;10272202;28;20427;-66
2021/09/21 20:00:44;;;;;;;5.57;4.60;;;;;;;15.11;54.40;101473.28;10274891;28;20129;-66
2021/09/21 20:05:45;;;;;;;5.63;4.13;;;;;;;14.98;54.60;101491.34;10274709;28;20137;-66
2021/09/21 20:10:47;;;;;;;7.30;6.55;;;;;;;14.84;54.64;101471.84;10260946;28;20066;-66
2021/09/21 20:15:49;;;;;;;8.70;7.90;;;;;;;14.93;55.54;101474.78;10264906;28;20067;-67
2021/09/21 20:20:54;;;;;;;6.95;6.38;;;;;;;14.84;54.53;101460.28;10275686;28;20449;-66
2021/09/21 20:25:55;;;;;;;5.93;3.70;;;;;;;14.84;55.80;101493.28;10256004;28;20066;-66
2021/09/21 20:30:57;;;;;;;4.75;4.32;;;;;;;15.12;54.86;101496.47;10266791;28;20086;-66
2021/09/21 20:36:03;;;;;;;4.35;3.63;;;;;;;15.24;55.73;101499.13;10283596;28;20054;-66
2021/09/21 20:41:04;;;;;;;3.97;3.67;;;;;;;15.21;54.66;101494.88;10308093;28;20069;-67
2021/09/21 20:46:06;;;;;;;5.05;3.97;;;;;;;15.19;55.56;101492.31;10290637;28;20074;-67
2021/09/21 20:51:12;;;;;;;4.05;3.60;;;;;;;15.14;55.05;101486.47;10252964;28;20070;-67
2021/09/21 20:56:13;;;;;;;4.22;3.60;;;;;;;15.20;54.62;101477.06;10253488;28;20051;-66
2021/09/21 21:01:15;;;;;;;3.60;3.28;;;;;;;15.22;54.67;101479.63;10238254;28;20133;-66
2021/09/21 21:06:16;;;;;;;3.95;3.30;;;;;;;15.30;54.59;101496.81;10222203;28;20110;-66
2021/09/21 21:11:18;;;;;;;4.65;3.97;;;;;;;15.27;54.96;101493.53;10226876;28;20126;-65
2021/09/21 21:16:19;;;;;;;6.65;3.60;;;;;;;15.23;55.10;101497.44;10254319;28;20074;-68
2021/09/21 21:21:21;;;;;;;3.97;3.58;;;;;;;15.19;55.43;101503.06;10255830;28;20501;-67
2021/09/21 21:26:23;;;;;;;4.38;3.92;;;;;;;15.16;55.59;101505.97;10262799;28;20076;-67
2021/09/21 21:31:24;;;;;;;4.30;3.90;;;;;;;15.14;55.31;101515.97;10248222;28;20126;-67
2021/09/21 21:36:26;;;;;;;5.13;3.63;;;;;;;15.13;54.74;101514.28;10252496;28;20054;-65
2021/09/21 21:41:27;;;;;;;3.47;3.17;;;;;;;15.00;54.49;101500.13;10261090;28;20130;-64
2021/09/21 21:46:29;;;;;;;5.20;4.45;;;;;;;14.95;54.88;101505.88;10255576;28;20073;-66
2021/09/21 21:51:30;;;;;;;4.70;3.63;;;;;;;14.91;55.36;101508.91;10254016;28;20452;-66
2021/09/21 21:56:32;;;;;;;4.25;3.55;;;;;;;14.88;55.76;101519.84;10256874;28;20070;-65
2021/09/21 22:01:33;;;;;;;4.68;3.58;;;;;;;14.79;55.99;101511.56;10259879;28;20158;-67
2021/09/21 22:06:35;;;;;;;5.60;4.53;;;;;;;14.66;56.49;101500.94;10228300;28;20051;-66
2021/09/21 22:11:37;;;;;;;7.78;4.65;;;;;;;14.71;56.94;101513.97;10221447;28;20138;-65
2021/09/21 22:16:38;;;;;;;6.35;5.18;;;;;;;14.66;57.47;101505.47;10222391;28;20125;-66
2021/09/21 22:21:39;;;;;;;6.18;4.80;;;;;;;14.67;58.18;101502.66;10224567;28;20047;-65
2021/09/21 22:26:41;;;;;;;6.28;4.97;;;;;;;14.63;58.59;101511.06;10240014;28;20515;-66
2021/09/21 22:31:42;;;;;;;5.47;4.97;;;;;;;14.07;59.00;101437.59;10221572;28;20131;-66
2021/09/21 22:36:44;;;;;;;6.90;4.97;;;;;;;14.53;59.51;101508.19;10240766;28;20130;-66
2021/09/21 22:41:45;;;;;;;6.68;6.03;;;;;;;14.53;59.45;101499.31;10242552;28;20479;-65
2021/09/21 22:46:47;;;;;;;7.80;5.38;;;;;;;14.43;59.65;101486.63;10241414;28;20058;-65
2021/09/21 22:51:48;;;;;;;7.57;5.35;;;;;;;14.47;59.97;101497.94;10222338;28;20100;-65
2021/09/21 22:56:50;;;;;;;5.45;4.88;;;;;;;14.44;59.84;101496.38;10224799;28;20103;-65
2021/09/21 23:01:51;;;;;;;6.20;5.50;;;;;;;14.43;60.19;101497.34;10219017;28;20044;-65
2021/09/21 23:06:52;;;;;;;5.85;4.82;;;;;;;14.40;60.53;101500.25;10218522;28;20503;-65
2021/09/21 23:11:54;;;;;;;6.05;5.20;;;;;;;14.30;60.64;101483.19;10220011;28;20094;-65
2021/09/21 23:16:56;;;;;;;6.07;5.38;;;;;;;14.31;60.72;101496.47;10219406;28;20135;-65
2021/09/21 23:21:57;;;;;;;6.40;5.20;;;;;;;14.13;61.17;101488.00;10217772;28;20040;-65